Main page
METAR-TAF:

METAR-TAF

Airports :

Kota Airport

Kota, India

latitude: 25-09-36N, longitude: 075-50-44E, elevation: 273 m

Current weather observation

The report was made 1 hour and 12 minutes ago, at 01:00 UTC
Calm wind
Temperature 15°C
Humidity 82%
Pressure 1016 hPa
Visibility: 2500 m
haze

METAR: VIKO 160100Z 00000KT 2500 HZ NSC 15/12 Q1016 NOSIG

Time: 07:42 (02:12 UTC)


TAF: missing

Weather observations and forecasts of more than 4000 airports (METAR and TAF reports).

The available stations are represented by yellow and red dots on the map.

Hover mouse over dot to see the name of the station.

Then click to see weather observations and forecasts.

To change the map : click on the green buttons with a black cross to zoom in, on the green button with a dash to zoom out, or on the green arrows for adjacent maps.


METAR-TAF: